Clementsville, North Dakota
Current Conditions -  °F | °C
As of 6:56 PM on Friday 28 Nov 2014 (Local Time) from KJMS Reporting Station
Overcast Overcast  
Wind Chill: -2°   Ceiling: 900
Heat Index: 13°   Visibility: 10mi
Dew Point: 10°   Wind: 13mph
Humidity: 88%   Direction: 140°SE
Pressure: 29.61"   Gusts: NA
Location:  47.1102°N, 98.4039°W
Report Text: KJMS 290056Z AUTO 14011KT 10SM OVC009 M11/M12 A2961 RMK AO2 SLP060 T11061122
Loading
Personal Weather Stations






























Interactive Weather Map New forecast layout! Learn more

10-Day Weather Forecast

Advertisements
Track Severe Weather on mobile